Time;durP1;ratioP1;P1;durP2;ratioP2;P2;SDS_P1;SDS_P2;PMS_P1;PMS_P2;Temp;Humidity;BMP_temperature;BMP_pressure;BME280_temperature;BME280_humidity;BME280_pressure;Samples;Min_cycle;Max_cycle;Signal;HPM_P1;HPM_P2
2023/04/18 00:01:43;;;;;;;0.73;0.30;;;;;;;4.28;51.98;103519.53;5111312;27;20050;-67
2023/04/18 00:04:10;;;;;;;3.08;0.70;;;;;;;4.25;51.77;103516.81;5113265;27;20058;-67
2023/04/18 00:06:38;;;;;;;0.98;0.40;;;;;;;4.23;52.27;103521.00;5110978;27;20431;-67
2023/04/18 00:09:05;;;;;;;1.08;0.43;;;;;;;4.20;52.22;103519.13;5111363;27;20058;-66
2023/04/18 00:11:33;;;;;;;1.15;0.40;;;;;;;4.18;52.47;103525.03;5110880;27;20059;-67
2023/04/18 00:14:00;;;;;;;1.48;0.50;;;;;;;4.16;52.67;103527.56;5109066;28;20051;-67
2023/04/18 00:16:27;;;;;;;1.92;0.50;;;;;;;4.14;52.20;103525.72;5106279;28;20054;-67
2023/04/18 00:18:55;;;;;;;1.75;0.45;;;;;;;4.09;52.54;103520.28;5108247;28;20519;-67
2023/04/18 00:21:24;;;;;;;0.93;0.45;;;;;;;4.04;52.52;103522.66;5110020;27;20055;-67
2023/04/18 00:23:52;;;;;;;1.73;0.50;;;;;;;4.04;52.46;103516.56;5110081;27;20071;-67
2023/04/18 00:26:19;;;;;;;0.50;0.40;;;;;;;4.00;52.79;103522.41;5108987;27;20052;-67
2023/04/18 00:28:46;;;;;;;0.65;0.40;;;;;;;3.97;52.77;103520.53;5108891;27;20044;-66
2023/04/18 00:31:13;;;;;;;2.05;0.40;;;;;;;3.93;52.70;103526.38;5102420;28;20044;-66
2023/04/18 00:33:40;;;;;;;0.40;0.30;;;;;;;3.91;53.35;103527.09;5109407;27;20051;-66
2023/04/18 00:36:07;;;;;;;2.83;0.40;;;;;;;3.88;52.82;103519.16;5109813;27;20047;-66
2023/04/18 00:38:35;;;;;;;1.02;0.50;;;;;;;3.85;52.71;103524.19;5109332;28;20130;-67
2023/04/18 00:41:03;;;;;;;1.50;0.50;;;;;;;3.82;52.86;103520.63;5109027;27;20541;-66
2023/04/18 00:43:31;;;;;;;1.13;0.40;;;;;;;3.79;53.37;103520.47;5111015;27;20054;-67
2023/04/18 00:46:00;;;;;;;1.02;0.40;;;;;;;3.76;53.40;103514.25;5108057;28;20047;-66
2023/04/18 00:48:27;;;;;;;3.22;0.50;;;;;;;3.73;53.27;103512.38;5109810;28;20047;-67
2023/04/18 00:50:54;;;;;;;0.95;0.35;;;;;;;3.71;53.25;103519.16;5106047;28;20126;-68
2023/04/18 00:53:21;;;;;;;0.60;0.40;;;;;;;3.68;53.36;103524.16;5109504;27;20377;-67
2023/04/18 00:55:49;;;;;;;0.80;0.50;;;;;;;3.67;53.73;103524.06;5108617;27;20058;-66
2023/04/18 00:58:17;;;;;;;1.13;0.55;;;;;;;3.64;53.57;103519.59;5111605;27;20096;-67
2023/04/18 01:00:44;;;;;;;0.52;0.40;;;;;;;3.62;53.15;103526.41;5106995;28;20040;-66
2023/04/18 01:03:13;;;;;;;1.20;0.57;;;;;;;3.61;53.64;103537.53;5111459;27;20498;-66
2023/04/18 01:05:40;;;;;;;0.93;0.45;;;;;;;3.60;53.81;103535.78;5111576;27;20052;-67
2023/04/18 01:08:07;;;;;;;4.68;0.30;;;;;;;3.57;53.52;103533.03;5108727;28;20455;-67
2023/04/18 01:10:34;;;;;;;1.23;0.30;;;;;;;3.56;53.85;103534.72;5110520;27;20605;-67
2023/04/18 01:13:20;;;;;;;0.57;0.40;;;;;;;3.53;53.38;103539.72;5111271;27;20224;-67
2023/04/18 01:15:49;;;;;;;1.27;0.52;;;;;;;3.48;54.33;103543.75;5068525;28;20445;-67
2023/04/18 01:18:16;;;;;;;0.90;0.40;;;;;;;3.46;53.83;103539.28;5063762;28;20048;-66
2023/04/18 01:20:46;;;;;;;1.67;0.30;;;;;;;3.44;54.35;103533.16;5067912;28;20044;-66
2023/04/18 01:23:13;;;;;;;2.47;0.40;;;;;;;3.41;54.46;103533.88;5063521;28;20044;-67
2023/04/18 01:25:42;;;;;;;2.88;0.40;;;;;;;3.38;54.19;103528.53;5067883;28;20062;-66
2023/04/18 01:28:10;;;;;;;4.13;0.55;;;;;;;3.35;54.77;103523.19;5066959;28;20045;-66
2023/04/18 01:30:37;;;;;;;5.95;0.45;;;;;;;3.34;54.95;103521.44;5066607;28;20055;-66
2023/04/18 01:33:05;;;;;;;1.80;0.40;;;;;;;3.32;54.66;103526.50;5060571;28;20424;-66
2023/04/18 01:35:32;;;;;;;2.25;0.50;;;;;;;3.30;55.14;103527.22;5062911;28;20431;-67
2023/04/18 01:38:00;;;;;;;4.50;0.52;;;;;;;3.28;54.43;103532.31;5064964;28;20044;-67
2023/04/18 01:40:26;;;;;;;1.50;0.60;;;;;;;3.26;54.57;103533.03;5066575;28;20416;-66
2023/04/18 01:42:55;;;;;;;5.95;1.10;;;;;;;3.23;54.72;103531.16;5065650;28;20520;-67
2023/04/18 01:45:22;;;;;;;1.45;0.57;;;;;;;3.21;54.84;103531.88;5069072;28;20070;-66
2023/04/18 01:47:49;;;;;;;4.78;0.50;;;;;;;3.19;55.21;103533.47;5062563;28;20175;-66
2023/04/18 01:50:16;;;;;;;2.15;0.40;;;;;;;3.17;55.41;103535.09;5068752;28;20037;-66
2023/04/18 01:52:42;;;;;;;3.35;1.20;;;;;;;3.15;55.15;103532.41;5067768;28;20048;-66
2023/04/18 01:55:10;;;;;;;0.82;0.40;;;;;;;3.11;55.44;103527.91;5067616;28;20054;-66
2023/04/18 01:57:37;;;;;;;1.48;0.40;;;;;;;3.12;55.02;103532.25;5068851;28;20040;-66
2023/04/18 02:00:07;;;;;;;1.25;0.55;;;;;;;3.11;55.69;103541.69;5064683;28;20063;-66
2023/04/18 02:02:34;;;;;;;1.65;0.47;;;;;;;3.09;55.29;103532.97;5062959;28;20059;-66
2023/04/18 02:05:01;;;;;;;0.88;0.40;;;;;;;3.08;55.32;103540.63;5068679;28;20059;-66
2023/04/18 02:07:28;;;;;;;1.95;0.50;;;;;;;3.05;55.52;103540.47;5066131;28;20477;-66
2023/04/18 02:09:55;;;;;;;1.48;0.50;;;;;;;3.06;55.83;103547.41;5067562;28;20056;-66
2023/04/18 02:12:22;;;;;;;2.67;0.60;;;;;;;3.01;56.08;103535.91;5067865;28;20048;-66
2023/04/18 02:14:51;;;;;;;1.02;0.47;;;;;;;3.02;55.77;103543.75;5084142;28;20048;-66
2023/04/18 02:17:22;;;;;;;0.60;0.40;;;;;;;3.02;56.10;103548.03;5108875;27;20047;-66
2023/04/18 02:19:49;;;;;;;2.45;0.50;;;;;;;3.01;55.69;103546.25;5105565;28;20058;-67
2023/04/18 02:22:16;;;;;;;3.10;0.40;;;;;;;3.00;56.14;103544.47;5106952;27;20465;-66
2023/04/18 02:24:43;;;;;;;0.75;0.40;;;;;;;3.00;56.12;103547.06;5106636;28;20396;-66
2023/04/18 02:27:10;;;;;;;1.60;0.40;;;;;;;2.98;55.32;103546.94;5109503;28;20047;-66
2023/04/18 02:29:37;;;;;;;2.05;0.50;;;;;;;2.98;56.05;103551.22;5108087;27;20054;-67
2023/04/18 02:32:05;;;;;;;4.65;0.40;;;;;;;2.96;55.77;103545.09;5106093;28;20052;-66
2023/04/18 02:34:33;;;;;;;2.08;0.40;;;;;;;2.96;56.04;103556.34;5110940;27;20051;-67
2023/04/18 02:37:00;;;;;;;2.05;0.50;;;;;;;2.96;55.48;103558.00;5109649;27;20062;-66
2023/04/18 02:39:27;;;;;;;2.15;0.47;;;;;;;2.95;56.14;103540.72;5108004;27;20056;-66
2023/04/18 02:41:53;;;;;;;1.65;0.45;;;;;;;2.93;55.70;103546.72;5109205;28;20054;-66
2023/04/18 02:44:20;;;;;;;1.88;0.40;;;;;;;2.93;56.31;103546.72;5104938;27;20044;-66
2023/04/18 02:46:47;;;;;;;0.80;0.40;;;;;;;2.91;55.82;103548.31;5107513;27;20054;-67
2023/04/18 02:49:16;;;;;;;1.17;0.40;;;;;;;2.91;56.09;103545.72;5107226;28;20047;-70
2023/04/18 02:51:44;;;;;;;1.63;0.47;;;;;;;2.89;56.18;103547.31;5107631;28;20047;-69
2023/04/18 02:54:12;;;;;;;0.60;0.38;;;;;;;2.89;56.03;103549.03;5104924;28;20045;-70
2023/04/18 02:56:41;;;;;;;1.30;0.55;;;;;;;2.88;55.96;103550.72;5107995;28;20523;-69
2023/04/18 02:59:08;;;;;;;1.00;0.50;;;;;;;2.88;56.05;103552.41;5109224;28;20551;-69
2023/04/18 03:01:35;;;;;;;2.67;0.50;;;;;;;2.87;56.08;103561.81;5105405;27;20056;-69
2023/04/18 03:04:02;;;;;;;1.38;0.40;;;;;;;2.86;55.92;103560.06;5109196;28;20054;-69
2023/04/18 03:06:30;;;;;;;0.80;0.40;;;;;;;2.86;56.41;103557.47;5108040;28;20043;-69
2023/04/18 03:08:58;;;;;;;2.15;0.45;;;;;;;2.86;56.41;103548.84;5109309;28;20058;-70
2023/04/18 03:11:25;;;;;;;1.02;0.40;;;;;;;2.85;55.92;103554.81;5108769;28;20047;-70
2023/04/18 03:13:54;;;;;;;1.52;0.40;;;;;;;2.84;56.13;103559.06;5105297;28;20060;-69
2023/04/18 03:16:21;;;;;;;2.40;0.40;;;;;;;2.83;56.67;103562.47;5105621;28;20497;-70
2023/04/18 03:18:47;;;;;;;1.77;0.60;;;;;;;2.82;56.51;103558.09;5109015;28;20051;-69
2023/04/18 03:21:14;;;;;;;1.42;0.40;;;;;;;2.80;56.54;103562.28;5106839;28;20057;-70
2023/04/18 03:23:41;;;;;;;1.80;1.33;;;;;;;2.80;56.81;103569.16;5107532;28;20147;-69
2023/04/18 03:26:12;;;;;;;0.65;0.30;;;;;;;2.78;56.93;103566.47;5107285;28;20044;-69
2023/04/18 03:28:39;;;;;;;0.70;0.40;;;;;;;2.75;56.53;103567.97;5108959;28;20393;-69
2023/04/18 03:31:06;;;;;;;1.17;0.40;;;;;;;2.77;57.05;103574.13;5110184;28;20142;-69
2023/04/18 03:33:33;;;;;;;2.70;0.35;;;;;;;2.78;56.88;103575.91;5108722;28;20043;-69
2023/04/18 03:36:00;;;;;;;1.88;0.55;;;;;;;2.75;56.60;103571.44;5111138;28;20517;-70
2023/04/18 03:38:27;;;;;;;0.95;0.30;;;;;;;2.76;57.01;103578.41;5106737;28;20048;-69
2023/04/18 03:40:54;;;;;;;1.13;0.32;;;;;;;2.75;57.50;103576.59;5105291;28;20036;-69
2023/04/18 03:43:22;;;;;;;0.52;0.40;;;;;;;2.72;57.64;103571.28;5104602;28;20044;-69
2023/04/18 03:45:49;;;;;;;0.40;0.30;;;;;;;2.72;57.50;103578.13;5107447;28;20051;-69
2023/04/18 03:48:16;;;;;;;1.35;0.40;;;;;;;2.65;56.95;103574.31;5110168;28;20051;-69
2023/04/18 03:50:43;;;;;;;2.20;0.60;;;;;;;2.70;57.82;103578.03;5105208;28;20073;-69
2023/04/18 03:53:10;;;;;;;6.32;0.40;;;;;;;2.70;57.29;103576.34;5106272;28;20407;-69
2023/04/18 03:55:37;;;;;;;1.13;0.65;;;;;;;2.70;57.59;103578.94;5105907;28;20052;-69
2023/04/18 03:58:04;;;;;;;2.10;0.35;;;;;;;2.72;57.82;103576.44;5103638;28;20101;-70
2023/04/18 04:00:32;;;;;;;3.83;0.63;;;;;;;2.73;57.94;103588.53;5107441;28;20918;-69
2023/04/18 04:02:59;;;;;;;2.25;0.40;;;;;;;2.74;58.04;103574.84;5103683;28;20413;-70
2023/04/18 04:05:26;;;;;;;2.67;0.60;;;;;;;2.77;58.19;103579.28;5104663;28;20043;-70
2023/04/18 04:07:53;;;;;;;1.35;0.47;;;;;;;2.78;57.94;103578.47;5106259;28;20411;-69
2023/04/18 04:10:20;;;;;;;0.50;0.40;;;;;;;2.77;58.37;103575.00;5107344;28;20047;-69
2023/04/18 04:12:47;;;;;;;1.58;0.40;;;;;;;2.81;58.67;103581.25;5104787;28;20054;-69
2023/04/18 04:15:14;;;;;;;1.88;0.38;;;;;;;2.82;58.43;103577.88;5107886;28;20059;-68
2023/04/18 04:17:42;;;;;;;1.00;0.43;;;;;;;2.85;58.82;103591.84;5103186;28;20051;-68
2023/04/18 04:20:10;;;;;;;0.52;0.40;;;;;;;2.88;58.58;103589.44;5104521;28;20044;-68
2023/04/18 04:22:37;;;;;;;2.03;0.60;;;;;;;2.89;58.93;103596.38;5107165;28;20048;-68
2023/04/18 04:25:06;;;;;;;0.70;0.40;;;;;;;2.92;58.37;103590.50;5109282;27;20732;-68
2023/04/18 04:27:35;;;;;;;0.52;0.30;;;;;;;2.95;58.81;103590.69;5109460;28;20055;-68
2023/04/18 04:30:03;;;;;;;1.33;0.50;;;;;;;2.98;58.66;103598.59;5111846;27;20056;-68
2023/04/18 04:32:31;;;;;;;1.95;0.43;;;;;;;3.01;59.53;103600.47;5111754;27;20055;-68
2023/04/18 04:34:59;;;;;;;0.80;0.47;;;;;;;3.05;59.69;103605.03;5111982;27;20491;-68
2023/04/18 04:37:27;;;;;;;1.45;0.30;;;;;;;3.08;59.55;103606.09;5108929;27;20043;-68
2023/04/18 04:39:55;;;;;;;2.80;0.50;;;;;;;3.13;59.27;103612.41;5110576;28;20411;-68
2023/04/18 04:42:23;;;;;;;1.30;0.40;;;;;;;3.18;59.46;103615.25;5112064;27;20047;-68
2023/04/18 04:44:52;;;;;;;0.95;0.40;;;;;;;3.24;59.15;103617.28;5111252;27;20044;-68
2023/04/18 04:47:19;;;;;;;2.15;0.50;;;;;;;3.28;59.22;103621.84;5100086;27;20044;-68
2023/04/18 04:49:46;;;;;;;0.50;0.40;;;;;;;3.33;60.09;103625.56;5113286;27;20085;-68
2023/04/18 04:52:14;;;;;;;1.30;0.40;;;;;;;3.36;59.69;103624.06;5111028;27;20054;-68
2023/04/18 04:54:42;;;;;;;1.15;0.43;;;;;;;3.41;59.47;103626.00;5109608;28;20046;-68
2023/04/18 04:57:09;;;;;;;1.52;0.50;;;;;;;3.47;59.49;103634.09;5105705;27;20450;-68
2023/04/18 04:59:36;;;;;;;2.05;0.60;;;;;;;3.54;59.63;103625.91;5109927;28;20075;-68
2023/04/18 05:02:03;;;;;;;1.00;0.57;;;;;;;3.58;59.36;103633.00;5111577;27;20161;-68
2023/04/18 05:04:30;;;;;;;3.10;0.52;;;;;;;3.65;59.18;103642.91;5110174;27;20048;-68
2023/04/18 05:06:57;;;;;;;1.52;0.40;;;;;;;3.72;59.75;103637.25;5110715;27;20772;-68
2023/04/18 05:09:26;;;;;;;3.15;0.40;;;;;;;3.80;59.46;103645.44;5105925;28;20109;-68
2023/04/18 05:11:52;;;;;;;1.10;0.40;;;;;;;3.88;59.03;103640.72;5107057;27;20055;-68
2023/04/18 05:14:19;;;;;;;1.85;0.60;;;;;;;3.95;58.79;103637.63;5108603;27;20471;-69
2023/04/18 05:16:46;;;;;;;2.90;0.47;;;;;;;4.03;58.89;103637.25;5109522;28;20120;-67
2023/04/18 05:19:13;;;;;;;3.65;0.47;;;;;;;4.11;58.97;103641.97;5109660;27;20047;-67
2023/04/18 05:21:40;;;;;;;2.28;0.55;;;;;;;4.18;58.88;103639.75;5105921;28;20082;-67
2023/04/18 05:24:07;;;;;;;0.75;0.40;;;;;;;4.25;58.27;103634.13;5109553;27;20050;-68
2023/04/18 05:26:35;;;;;;;3.05;0.50;;;;;;;4.33;58.75;103633.66;5108191;27;20563;-68
2023/04/18 05:29:02;;;;;;;1.02;0.60;;;;;;;4.41;58.21;103634.94;5109017;27;20378;-67
2023/04/18 05:31:29;;;;;;;2.55;0.47;;;;;;;4.49;58.12;103638.81;5106289;28;20043;-68
2023/04/18 05:33:56;;;;;;;1.75;0.45;;;;;;;4.56;58.05;103638.34;5108529;27;20054;-67
2023/04/18 05:36:23;;;;;;;0.22;0.20;;;;;;;4.62;57.97;103649.00;5107439;27;20043;-68
2023/04/18 05:38:50;;;;;;;0.55;0.50;;;;;;;4.70;57.68;103652.00;5106709;27;20419;-67
2023/04/18 05:41:17;;;;;;;1.20;0.50;;;;;;;4.77;57.82;103653.19;5108905;27;20035;-68
2023/04/18 05:43:45;;;;;;;0.80;0.45;;;;;;;4.83;57.18;103648.34;5108694;27;20058;-67
2023/04/18 05:46:12;;;;;;;1.35;0.50;;;;;;;4.89;57.63;103641.75;5109276;27;20404;-67
2023/04/18 05:48:39;;;;;;;0.60;0.43;;;;;;;4.95;57.25;103642.09;5105718;28;20051;-67
2023/04/18 05:51:06;;;;;;;1.75;0.40;;;;;;;5.03;57.30;103642.47;5106166;27;20058;-66
2023/04/18 05:53:33;;;;;;;0.93;0.40;;;;;;;5.09;57.21;103642.75;5107710;27;20051;-66
2023/04/18 05:56:00;;;;;;;1.20;0.45;;;;;;;5.16;57.04;103650.03;5107782;27;20047;-66
2023/04/18 05:58:28;;;;;;;0.70;0.30;;;;;;;5.23;56.79;103656.41;5105815;28;20039;-67
2023/04/18 06:00:56;;;;;;;1.08;0.60;;;;;;;5.29;56.47;103655.81;5106323;28;20052;-68
2023/04/18 06:03:23;;;;;;;1.02;0.30;;;;;;;5.33;56.71;103647.41;5109835;27;20050;-67
2023/04/18 06:05:50;;;;;;;3.60;0.57;;;;;;;5.38;56.60;103656.31;5106664;28;20067;-67
2023/04/18 06:08:17;;;;;;;5.65;0.68;;;;;;;5.45;56.50;103663.56;5108031;27;20052;-67
2023/04/18 06:10:43;;;;;;;1.27;0.30;;;;;;;5.51;56.51;103657.78;5108264;28;20514;-68
2023/04/18 06:13:10;;;;;;;1.48;0.45;;;;;;;5.59;56.30;103666.81;5109646;27;20044;-68
2023/04/18 06:15:37;;;;;;;1.13;0.50;;;;;;;5.66;56.10;103673.19;5109987;28;20154;-68
2023/04/18 06:18:06;;;;;;;3.83;0.40;;;;;;;5.71;56.16;103656.16;5107005;27;20660;-68
2023/04/18 06:20:32;;;;;;;0.40;0.30;;;;;;;5.78;56.01;103663.41;5107448;28;20058;-69
2023/04/18 06:22:59;;;;;;;0.60;0.32;;;;;;;5.84;55.86;103668.91;5107513;27;20043;-68
2023/04/18 06:25:27;;;;;;;1.50;0.40;;;;;;;5.90;55.92;103666.59;5108852;28;20043;-69
2023/04/18 06:27:54;;;;;;;2.95;0.35;;;;;;;5.95;55.68;103662.53;5108162;28;21064;-68
2023/04/18 06:30:21;;;;;;;3.83;0.50;;;;;;;5.99;55.56;103664.44;5108147;28;20506;-69
2023/04/18 06:32:48;;;;;;;3.95;0.30;;;;;;;6.07;55.21;103672.59;5107525;28;20050;-68
2023/04/18 06:35:16;;;;;;;0.40;0.30;;;;;;;6.13;55.19;103669.41;5109107;28;20043;-68
2023/04/18 06:37:43;;;;;;;4.70;1.75;;;;;;;6.18;54.74;103673.97;5106186;28;20055;-69
2023/04/18 06:40:11;;;;;;;0.57;0.40;;;;;;;6.25;54.66;103669.94;5106657;28;20083;-68
2023/04/18 06:42:38;;;;;;;0.68;0.30;;;;;;;6.29;54.72;103671.88;5103890;28;20393;-69
2023/04/18 06:45:06;;;;;;;8.60;0.47;;;;;;;6.35;54.58;103671.25;5108612;28;20062;-69
2023/04/18 06:47:33;;;;;;;0.75;0.38;;;;;;;6.42;54.49;103669.00;5106142;28;20519;-69
2023/04/18 06:50:00;;;;;;;7.57;0.40;;;;;;;6.48;54.00;103679.66;5109421;27;20063;-69
2023/04/18 06:52:28;;;;;;;1.27;0.30;;;;;;;6.55;53.55;103674.78;5106295;28;20361;-69
2023/04/18 06:54:55;;;;;;;3.08;0.50;;;;;;;6.63;53.59;103670.78;5108584;28;20039;-70
2023/04/18 06:57:22;;;;;;;5.97;0.50;;;;;;;6.70;53.50;103685.84;5108880;27;20063;-69
2023/04/18 06:59:49;;;;;;;1.88;0.35;;;;;;;6.79;53.42;103677.56;5108295;27;20480;-69
2023/04/18 07:02:15;;;;;;;2.80;0.45;;;;;;;6.89;52.68;103675.44;5105916;27;20067;-69
2023/04/18 07:04:42;;;;;;;0.55;0.40;;;;;;;6.96;52.57;103672.25;5106537;27;20043;-69
2023/04/18 07:07:09;;;;;;;6.25;0.40;;;;;;;7.07;52.38;103674.44;5108639;28;20050;-69
2023/04/18 07:09:38;;;;;;;1.08;0.40;;;;;;;7.18;52.65;103683.56;5104773;28;20048;-69
2023/04/18 07:12:05;;;;;;;0.68;0.35;;;;;;;7.29;52.46;103677.13;5105435;28;20150;-69
2023/04/18 07:14:32;;;;;;;1.83;0.60;;;;;;;7.38;52.22;103677.50;5105232;28;20059;-69
2023/04/18 07:16:59;;;;;;;0.68;0.30;;;;;;;7.49;52.20;103687.47;5107635;28;20044;-68
2023/04/18 07:19:26;;;;;;;0.60;0.43;;;;;;;7.61;51.78;103680.16;5107133;28;20048;-69
2023/04/18 07:21:54;;;;;;;0.45;0.40;;;;;;;7.74;52.04;103686.72;5108329;28;20151;-69
2023/04/18 07:24:22;;;;;;;2.78;0.30;;;;;;;7.85;51.59;103680.22;5107028;28;20048;-69
2023/04/18 07:26:50;;;;;;;0.77;0.30;;;;;;;8.00;51.63;103685.16;5109081;27;20498;-69
2023/04/18 07:29:18;;;;;;;0.68;0.30;;;;;;;8.13;51.02;103687.38;5107277;28;20063;-69
2023/04/18 07:31:45;;;;;;;3.85;0.40;;;;;;;8.27;50.71;103691.41;5108789;28;20543;-69
2023/04/18 07:34:12;;;;;;;1.10;0.47;;;;;;;8.42;50.36;103690.22;5111266;28;20039;-69
2023/04/18 07:36:40;;;;;;;1.27;0.30;;;;;;;8.52;49.56;103688.03;5108316;28;20104;-69
2023/04/18 07:39:07;;;;;;;1.27;0.40;;;;;;;8.69;49.73;103690.38;5106700;28;20053;-69
2023/04/18 07:41:34;;;;;;;4.95;0.30;;;;;;;8.82;49.71;103676.94;5107682;28;20055;-69
2023/04/18 07:44:03;;;;;;;0.30;0.30;;;;;;;8.98;49.01;103676.63;5109008;28;20040;-69
2023/04/18 07:46:31;;;;;;;0.93;0.32;;;;;;;9.14;49.38;103685.88;5108411;28;20040;-69
2023/04/18 07:48:58;;;;;;;0.70;0.30;;;;;;;9.27;49.44;103691.50;5108572;28;20080;-69
2023/04/18 07:51:30;;;;;;;2.83;0.32;;;;;;;9.42;49.41;103681.56;5106902;28;20054;-69
2023/04/18 07:53:57;;;;;;;0.70;0.30;;;;;;;9.63;48.68;103684.88;5103868;28;20055;-69
2023/04/18 07:56:24;;;;;;;3.25;0.30;;;;;;;9.85;47.56;103682.97;5108125;28;20043;-69
2023/04/18 07:58:50;;;;;;;0.73;0.30;;;;;;;10.04;48.27;103685.28;5111054;27;20043;-69
2023/04/18 08:01:22;;;;;;;9.57;0.38;;;;;;;10.22;47.65;103690.19;5109028;28;20424;-69
2023/04/18 08:03:50;;;;;;;1.33;0.30;;;;;;;10.42;47.00;103682.09;5111568;27;20081;-69
2023/04/18 08:06:17;;;;;;;1.10;0.30;;;;;;;10.62;45.22;103700.97;5109612;27;20046;-69
2023/04/18 08:08:45;;;;;;;0.30;0.20;;;;;;;10.78;45.95;103684.81;5111291;27;20445;-69
2023/04/18 08:11:12;;;;;;;2.95;0.50;;;;;;;10.91;44.66;103679.09;5109770;28;20047;-69
2023/04/18 08:13:39;;;;;;;2.78;0.65;;;;;;;11.05;44.04;103687.31;5111422;28;20774;-69
2023/04/18 08:16:06;;;;;;;3.17;0.35;;;;;;;11.18;43.62;103685.88;5110682;27;20047;-69
2023/04/18 08:18:35;;;;;;;0.77;0.30;;;;;;;11.28;42.90;103677.44;5112527;27;20052;-70
2023/04/18 08:21:02;;;;;;;1.10;0.22;;;;;;;11.38;43.00;103692.50;5107308;28;20044;-69
2023/04/18 08:23:29;;;;;;;2.47;0.40;;;;;;;11.47;42.15;103687.50;5109462;27;20043;-69
2023/04/18 08:25:56;;;;;;;0.32;0.20;;;;;;;11.53;42.12;103691.13;5110445;27;20052;-69
2023/04/18 08:28:23;;;;;;;1.02;0.38;;;;;;;11.57;41.54;103690.34;5112328;28;20039;-69
2023/04/18 08:30:50;;;;;;;0.57;0.50;;;;;;;11.64;41.32;103689.63;5111388;27;20050;-69
2023/04/18 08:33:18;;;;;;;4.30;0.32;;;;;;;11.68;41.15;103709.81;5110562;27;20071;-69
2023/04/18 08:35:47;;;;;;;0.75;0.30;;;;;;;11.73;40.93;103682.00;5112599;27;20044;-69
2023/04/18 08:38:14;;;;;;;0.30;0.20;;;;;;;11.74;40.23;103691.63;5107394;28;20046;-69
2023/04/18 08:40:41;;;;;;;3.05;0.30;;;;;;;11.76;40.63;103697.78;5109418;27;20039;-70
2023/04/18 08:43:11;;;;;;;3.05;0.30;;;;;;;11.80;39.53;103703.97;5108974;28;20056;-69
2023/04/18 08:45:38;;;;;;;0.82;0.30;;;;;;;11.79;39.62;103703.09;5109937;28;20502;-69
2023/04/18 08:48:06;;;;;;;1.35;0.30;;;;;;;11.79;39.34;103699.59;5110488;28;20120;-69
2023/04/18 08:50:33;;;;;;;0.80;0.30;;;;;;;11.79;39.56;103690.00;5109992;27;20117;-69
2023/04/18 08:53:02;;;;;;;2.15;0.32;;;;;;;11.84;39.12;103692.72;5112475;27;20492;-69
2023/04/18 08:55:29;;;;;;;3.70;0.50;;;;;;;11.85;38.64;103700.66;5108188;27;20064;-70
2023/04/18 08:57:56;;;;;;;4.28;0.30;;;;;;;11.85;38.52;103697.13;5107339;28;20051;-70
2023/04/18 09:00:23;;;;;;;1.20;0.20;;;;;;;11.85;38.78;103700.66;5109742;27;20050;-69
2023/04/18 09:02:55;;;;;;;0.32;0.30;;;;;;;11.86;38.31;103691.94;5109000;28;20059;-69
2023/04/18 09:05:22;;;;;;;1.25;0.30;;;;;;;11.88;38.34;103695.47;5110686;27;20064;-69
2023/04/18 09:07:50;;;;;;;2.60;0.20;;;;;;;11.88;38.62;103713.81;5107952;28;20039;-69
2023/04/18 09:10:31;;;;;;;1.75;0.40;;;;;;;11.90;38.87;103706.88;5107372;28;21226;-70
2023/04/18 09:12:59;;;;;;;1.58;0.30;;;;;;;11.92;38.51;103707.81;5108528;27;20059;-69
2023/04/18 09:15:28;;;;;;;2.63;0.20;;;;;;;11.95;37.73;103698.22;5110841;27;20051;-70
2023/04/18 09:17:56;;;;;;;0.20;0.20;;;;;;;11.94;38.55;103710.44;5108829;27;20054;-69
2023/04/18 09:20:34;;;;;;;1.65;0.30;;;;;;;11.96;38.38;103703.53;5112196;27;20046;-69
2023/04/18 09:23:03;;;;;;;2.22;0.20;;;;;;;11.98;38.43;103699.22;5109325;27;20051;-69
2023/04/18 09:25:34;;;;;;;1.92;0.20;;;;;;;12.01;38.36;103691.41;5110571;28;20048;-69
2023/04/18 09:28:02;;;;;;;0.60;0.20;;;;;;;12.04;38.33;103696.72;5108979;28;20035;-70
2023/04/18 09:30:35;;;;;;;0.38;0.20;;;;;;;12.06;38.58;103695.00;5110568;27;20051;-69
2023/04/18 09:33:03;;;;;;;0.40;0.20;;;;;;;12.09;38.42;103699.41;5110732;27;20047;-70
2023/04/18 09:35:30;;;;;;;2.40;0.20;;;;;;;12.09;38.33;103688.94;5108442;27;20914;-69
2023/04/18 09:37:57;;;;;;;0.63;0.20;;;;;;;12.14;37.99;103693.44;5110388;28;20052;-69
2023/04/18 09:40:24;;;;;;;0.30;0.20;;;;;;;12.15;38.06;103710.03;5110301;27;20145;-69
2023/04/18 09:42:54;;;;;;;1.65;0.20;;;;;;;12.16;37.85;103701.34;5108886;27;20055;-69
2023/04/18 09:45:22;;;;;;;0.65;0.10;;;;;;;12.17;37.38;103681.25;5108849;28;20048;-69
2023/04/18 09:47:49;;;;;;;0.80;0.20;;;;;;;12.15;37.01;103692.59;5110374;27;20057;-69
2023/04/18 09:50:19;;;;;;;2.30;0.10;;;;;;;12.12;36.90;103695.16;5107265;28;20063;-70
2023/04/18 09:52:47;;;;;;;1.45;0.10;;;;;;;12.09;37.45;103678.47;5108580;28;20052;-69
2023/04/18 09:55:16;;;;;;;0.93;0.20;;;;;;;12.17;37.63;103681.25;5105986;27;20449;-69
2023/04/18 09:57:45;;;;;;;1.13;0.20;;;;;;;12.21;37.21;103689.22;5110982;27;20048;-70
2023/04/18 10:00:19;;;;;;;1.10;0.10;;;;;;;12.24;37.32;103704.09;5109478;27;20348;-69
2023/04/18 10:02:56;;;;;;;0.52;0.00;;;;;;;12.25;37.79;103691.06;5108539;27;20047;-69
2023/04/18 10:05:25;;;;;;;4.35;1.92;;;;;;;12.28;37.75;103685.88;5109547;27;20039;-69
2023/04/18 10:07:54;;;;;;;0.25;0.20;;;;;;;12.30;37.16;103680.69;5110322;27;20059;-69
2023/04/18 10:10:21;;;;;;;1.75;0.10;;;;;;;12.31;37.68;103696.41;5107075;27;20039;-70
2023/04/18 10:12:50;;;;;;;1.40;0.10;;;;;;;12.32;37.48;103682.47;5107039;27;20044;-69
2023/04/18 10:15:21;;;;;;;0.75;0.20;;;;;;;12.34;37.52;103696.47;5106754;27;20255;-69
2023/04/18 10:17:53;;;;;;;0.65;0.10;;;;;;;12.33;37.31;103684.25;5107091;28;20039;-69
2023/04/18 10:20:22;;;;;;;0.50;0.10;;;;;;;12.34;37.06;103690.34;5107010;27;20399;-69
2023/04/18 10:22:49;;;;;;;1.48;0.10;;;;;;;12.35;37.05;103693.03;5106674;28;20051;-70
2023/04/18 10:25:50;;;;;;;0.20;0.10;;;;;;;12.38;37.19;103689.59;5111082;27;20052;-69
2023/04/18 10:28:19;;;;;;;0.20;0.10;;;;;;;12.36;36.91;103700.03;5109358;28;20084;-69
2023/04/18 10:30:53;;;;;;;0.40;0.13;;;;;;;12.36;36.83;103684.28;5108572;28;20047;-70
2023/04/18 10:33:26;;;;;;;3.03;0.20;;;;;;;12.38;36.64;103682.59;5108870;28;20043;-69
2023/04/18 10:35:57;;;;;;;0.88;0.10;;;;;;;12.38;36.93;103684.34;5106061;27;20700;-69
2023/04/18 10:38:25;;;;;;;1.42;0.10;;;;;;;12.37;36.91;103683.44;5107054;27;20040;-69
2023/04/18 10:40:52;;;;;;;0.17;0.10;;;;;;;12.37;36.78;103685.19;5102868;28;20052;-69
2023/04/18 10:43:19;;;;;;;1.45;0.10;;;;;;;12.38;36.63;103698.34;5109090;28;20043;-69
2023/04/18 10:46:05;;;;;;;0.20;0.10;;;;;;;12.36;36.29;103679.06;5108052;27;20500;-69
2023/04/18 10:48:34;;;;;;;1.85;0.10;;;;;;;12.30;36.08;103684.19;5105565;28;20050;-69
2023/04/18 10:51:15;;;;;;;0.80;0.10;;;;;;;12.24;36.40;103668.31;5110395;27;20058;-69
2023/04/18 10:53:49;;;;;;;0.10;0.00;;;;;;;12.21;36.58;103677.84;5107381;27;20050;-69
2023/04/18 10:56:16;;;;;;;0.00;0.00;;;;;;;12.17;36.81;103682.13;5107169;28;20112;-69
2023/04/18 10:58:49;;;;;;;1.80;0.10;;;;;;;12.15;36.70;103662.88;5105264;27;20055;-69
2023/04/18 11:01:26;;;;;;;0.20;0.10;;;;;;;12.15;36.72;103668.09;5109006;28;20056;-69
2023/04/18 11:03:55;;;;;;;0.95;0.10;;;;;;;12.13;36.83;103675.06;5106911;28;20062;-69
2023/04/18 11:06:22;;;;;;;1.77;0.10;;;;;;;12.13;36.77;103664.59;5103579;28;20056;-69
2023/04/18 11:08:49;;;;;;;0.17;0.10;;;;;;;12.12;36.79;103668.97;5107383;28;20066;-69
2023/04/18 11:11:16;;;;;;;0.68;0.10;;;;;;;12.13;36.37;103667.22;5103186;27;20124;-69
2023/04/18 11:13:57;;;;;;;0.10;0.00;;;;;;;12.14;36.62;103663.72;5109934;28;20055;-68
2023/04/18 11:16:28;;;;;;;0.45;0.10;;;;;;;12.13;36.47;103660.22;5100237;28;20906;-69
2023/04/18 11:18:56;;;;;;;0.57;0.10;;;;;;;12.13;36.65;103670.72;5103872;28;20043;-69
2023/04/18 11:21:26;;;;;;;1.48;0.10;;;;;;;12.15;36.39;103660.25;5104230;28;20057;-69
2023/04/18 11:23:53;;;;;;;0.00;0.00;;;;;;;12.14;36.56;103648.00;5104235;28;20047;-69
2023/04/18 11:26:23;;;;;;;1.85;0.10;;;;;;;12.16;36.10;103664.66;5108803;28;20421;-69
2023/04/18 11:28:52;;;;;;;0.47;0.00;;;;;;;12.17;36.08;103660.28;5107464;28;20538;-69
2023/04/18 11:31:21;;;;;;;0.13;0.08;;;;;;;12.17;36.19;103660.28;5106057;28;20055;-69
2023/04/18 11:33:48;;;;;;;1.38;0.10;;;;;;;12.18;35.60;103652.47;5111123;28;20643;-69
2023/04/18 11:36:16;;;;;;;2.17;0.10;;;;;;;12.17;35.53;103650.69;5110584;28;20470;-69